createdAt,value
2018-09-25T13:21:16.092Z,7.73
2018-09-25T13:23:57.768Z,6.83
2018-09-25T13:26:35.207Z,8.01
2018-09-25T13:29:14.692Z,6.01
2018-09-25T13:31:52.553Z,6.98
2018-09-25T13:34:30.043Z,7.28
2018-09-25T13:37:07.431Z,7.17
2018-09-25T13:39:44.417Z,7.43
2018-09-25T13:42:27.953Z,7.78
2018-09-25T13:45:11.471Z,7.34
2018-09-25T13:47:56.479Z,7.56
2018-09-25T13:50:34.563Z,7.78
2018-09-25T13:53:14.547Z,8.75
2018-09-25T13:55:52.570Z,7.27
2018-09-25T13:58:28.063Z,8.96
2018-09-25T14:01:04.224Z,9.33
2018-09-25T14:06:24.224Z,7.52
2018-09-25T14:09:06.643Z,7.22
2018-09-25T14:11:44.434Z,8.93
2018-09-25T14:14:25.860Z,6.69
2018-09-25T14:17:13.452Z,6.01
2018-09-25T14:19:49.509Z,7.17
2018-09-25T14:22:25.054Z,6.62
2018-09-25T14:25:05.927Z,6.72
2018-09-25T14:27:42.787Z,6.32
2018-09-25T14:30:20.401Z,7.05
2018-09-25T14:33:00.146Z,6.66
2018-09-25T14:35:39.484Z,7.10
2018-09-25T14:38:17.391Z,7.15
2018-09-25T14:40:52.816Z,6.71
2018-09-25T14:43:29.650Z,6.39
2018-09-25T14:46:05.867Z,6.81
2018-09-25T14:48:48.730Z,6.54
2018-09-25T14:51:32.998Z,6.34
2018-09-25T14:54:09.780Z,6.85
2018-09-25T14:56:47.141Z,7.61
2018-09-25T14:59:30.230Z,7.27
2018-09-25T15:02:14.547Z,7.09
2018-09-25T15:04:56.363Z,8.25
2018-09-25T15:07:34.966Z,7.91
2018-09-25T15:10:12.579Z,8.03
2018-09-25T15:15:39.558Z,7.70
2018-09-25T15:18:17.367Z,7.19
2018-09-25T15:20:53.464Z,6.87
2018-09-25T15:23:30.299Z,7.92
2018-09-25T15:26:14.040Z,7.50
2018-09-25T15:28:53.575Z,9.49
2018-09-25T15:31:42.301Z,10.47
2018-09-25T15:34:22.900Z,9.85
2018-09-25T15:37:06.333Z,10.75
2018-09-25T15:39:43.823Z,10.52
2018-09-25T15:42:18.859Z,10.23
2018-09-25T15:44:55.632Z,9.93
2018-09-25T15:47:32.719Z,9.58
2018-09-25T15:50:09.593Z,9.39
2018-09-25T15:52:53.640Z,10.37
2018-09-25T15:55:34.514Z,10.08
2018-09-25T15:58:13.368Z,9.89
2018-09-25T16:00:52.876Z,10.68
2018-09-25T16:03:36.823Z,10.67
2018-09-25T16:06:13.701Z,8.98
2018-09-25T16:08:55.088Z,9.81
2018-09-25T16:11:31.736Z,9.64
2018-09-25T16:14:07.629Z,10.16
2018-09-25T16:16:43.162Z,11.26
2018-09-25T16:19:23.416Z,12.46
2018-09-25T16:22:02.542Z,12.21
2018-09-25T16:24:42.236Z,12.61
2018-09-25T16:27:18.074Z,12.87
2018-09-25T16:29:53.907Z,13.38
2018-09-25T16:32:32.269Z,12.79
2018-09-25T16:35:09.090Z,12.70
2018-09-25T16:37:45.569Z,14.12
2018-09-25T16:40:23.380Z,14.81
2018-09-25T16:43:08.532Z,15.47
2018-09-25T16:45:50.636Z,15.64
2018-09-25T16:48:35.394Z,16.94
2018-09-25T16:51:11.102Z,21.66
2018-09-25T16:56:50.403Z,19.24
2018-09-25T16:59:30.983Z,20.05
2018-09-25T17:02:15.556Z,21.18
2018-09-25T17:04:56.915Z,21.51
2018-09-25T17:07:48.324Z,21.42
2018-09-25T17:10:29.390Z,21.67
2018-09-25T17:13:07.484Z,22.66
2018-09-25T17:15:47.055Z,22.39
2018-09-25T17:18:29.158Z,23.15
2018-09-25T17:21:06.959Z,23.24
2018-09-25T17:23:49.671Z,23.44
2018-09-25T17:26:30.029Z,24.33
2018-09-25T17:29:06.500Z,23.84
2018-09-25T17:31:41.525Z,24.06
2018-09-25T17:34:25.551Z,24.85
2018-09-25T17:37:01.765Z,24.27
2018-09-25T17:39:50.703Z,25.24
2018-09-25T17:42:32.497Z,25.72
2018-09-25T17:45:06.300Z,26.05
2018-09-25T17:47:40.052Z,26.22
2018-09-25T17:50:13.576Z,25.95
2018-09-25T17:52:46.978Z,26.33
2018-09-25T17:55:20.804Z,26.18
2018-09-25T17:57:54.426Z,27.23
2018-09-25T18:00:28.644Z,26.30
2018-09-25T18:03:02.379Z,26.96
2018-09-25T18:05:36.134Z,27.20
2018-09-25T18:08:09.610Z,27.50
2018-09-25T18:10:43.427Z,27.74
2018-09-25T18:13:17.226Z,28.21
2018-09-25T18:15:50.886Z,37.22
2018-09-25T18:18:24.764Z,30.21
2018-09-25T18:20:58.344Z,37.96
2018-09-25T18:23:31.937Z,36.16
2018-09-25T18:26:05.562Z,32.18
2018-09-25T18:28:39.094Z,36.16
2018-09-25T18:31:12.784Z,38.28
2018-09-25T18:33:46.253Z,33.17
2018-09-25T18:36:19.854Z,33.31
2018-09-25T18:38:53.832Z,29.56
2018-09-25T18:41:27.589Z,40.81
2018-09-25T18:44:01.425Z,35.65
2018-09-25T18:46:35.194Z,29.51
2018-09-25T18:49:09.470Z,31.50
2018-09-25T18:51:43.035Z,34.61
2018-09-25T18:54:16.864Z,26.57
2018-09-25T18:56:50.469Z,35.51
2018-09-25T18:59:24.075Z,30.18
2018-09-25T19:01:57.540Z,28.33
2018-09-25T19:04:31.248Z,30.34
2018-09-25T19:07:05.057Z,36.28
2018-09-25T19:09:38.836Z,31.47
2018-09-25T19:12:12.615Z,27.81
2018-09-25T19:14:46.733Z,34.76
2018-09-25T19:17:20.224Z,32.16
2018-09-25T19:19:53.809Z,33.54
2018-09-25T19:22:27.539Z,37.75
2018-09-25T19:25:01.531Z,33.31
2018-09-25T19:27:35.325Z,27.20
2018-09-25T19:30:08.912Z,30.80
2018-09-25T19:32:42.700Z,35.84
2018-09-25T19:35:16.532Z,35.14
2018-09-25T19:37:50.131Z,32.57
2018-09-25T19:40:23.583Z,27.56
2018-09-25T19:42:57.357Z,31.16
2018-09-25T19:45:30.914Z,33.87
2018-09-25T19:48:04.614Z,35.72
2018-09-25T19:50:38.151Z,34.15
2018-09-25T19:53:11.722Z,30.29
2018-09-25T19:55:45.732Z,30.09
2018-09-25T19:58:19.409Z,31.49
2018-09-25T20:00:53.281Z,32.63
2018-09-25T20:03:26.941Z,27.58
2018-09-25T20:06:00.766Z,30.73
2018-09-25T20:08:35.067Z,26.83
2018-09-25T20:11:08.805Z,28.80
2018-09-25T20:13:42.473Z,31.76
2018-09-25T20:16:16.004Z,29.25
2018-09-25T20:18:49.496Z,32.02
2018-09-25T20:21:23.294Z,29.85
2018-09-25T20:23:56.700Z,28.40
2018-09-25T20:26:30.334Z,34.34
2018-09-25T20:29:04.114Z,28.76
2018-09-25T20:31:37.728Z,29.34
2018-09-25T20:34:11.709Z,28.83
2018-09-25T20:36:45.370Z,30.55
2018-09-25T20:39:19.105Z,33.56
2018-09-25T20:41:52.887Z,29.33
2018-09-25T20:44:26.715Z,29.33
2018-09-25T20:47:00.373Z,31.28
2018-09-25T20:49:34.134Z,30.85
2018-09-25T20:52:07.895Z,34.62
2018-09-25T20:54:41.684Z,34.28
2018-09-25T20:57:15.404Z,32.82
2018-09-25T20:59:48.945Z,35.49
2018-09-25T21:02:22.746Z,34.84
2018-09-25T21:04:56.456Z,34.27
2018-09-25T21:07:30.285Z,33.91
2018-09-25T21:10:04.150Z,33.31
2018-09-25T21:12:37.905Z,33.22
2018-09-25T21:15:11.979Z,34.24
2018-09-25T21:17:45.505Z,42.50
2018-09-25T21:20:19.281Z,33.33
2018-09-25T21:22:53.309Z,33.67
2018-09-25T21:25:27.003Z,33.67
2018-09-25T21:28:00.424Z,34.17
2018-09-25T21:30:33.937Z,33.37
2018-09-25T21:33:07.486Z,34.73
2018-09-25T21:35:41.379Z,36.88
2018-09-25T21:38:15.068Z,34.24
2018-09-25T21:40:48.819Z,35.15
2018-09-25T21:43:25.700Z,39.30
2018-09-25T21:45:59.386Z,41.99
2018-09-25T21:48:33.090Z,33.76
2018-09-25T21:51:06.735Z,35.19
2018-09-25T21:53:40.799Z,35.01
2018-09-25T21:56:14.460Z,36.09
2018-09-25T21:58:48.207Z,42.50
2018-09-25T22:01:22.037Z,39.00
2018-09-25T22:03:55.483Z,37.11
2018-09-25T22:06:31.815Z,36.77
2018-09-25T22:09:05.487Z,40.62
2018-09-25T22:11:39.245Z,36.88
2018-09-25T22:14:13.086Z,41.81
2018-09-25T22:16:46.936Z,35.42
2018-09-25T22:19:20.725Z,35.41
2018-09-25T22:21:54.432Z,35.73
2018-09-25T22:24:28.161Z,34.46
2018-09-25T22:27:01.677Z,46.09
2018-09-25T22:29:35.464Z,35.79
2018-09-25T22:32:08.987Z,44.33
2018-09-25T22:34:42.624Z,37.51
2018-09-25T22:37:16.710Z,33.69
2018-09-25T22:39:50.296Z,36.68
2018-09-25T22:42:24.053Z,35.96
2018-09-25T22:44:57.845Z,35.75
2018-09-25T22:47:31.713Z,43.23
2018-09-25T22:50:05.439Z,36.13
2018-09-25T22:52:38.903Z,35.38
2018-09-25T22:55:12.688Z,36.74
2018-09-25T22:57:46.429Z,44.18
2018-09-25T23:00:20.732Z,35.76
2018-09-25T23:02:54.713Z,36.44
2018-09-25T23:05:28.396Z,36.42
2018-09-25T23:08:02.200Z,38.31
2018-09-25T23:10:36.039Z,38.74
2018-09-25T23:13:09.569Z,38.66
2018-09-25T23:15:43.164Z,38.29
2018-09-25T23:18:16.820Z,38.35
2018-09-25T23:20:50.495Z,40.49
2018-09-25T23:23:24.368Z,39.40
2018-09-25T23:25:57.980Z,37.69
2018-09-25T23:28:31.737Z,37.43
2018-09-25T23:31:05.232Z,40.74
2018-09-25T23:33:39.188Z,38.23
2018-09-25T23:36:12.937Z,38.98
2018-09-25T23:38:46.483Z,44.05
2018-09-25T23:41:22.853Z,42.30
2018-09-25T23:44:27.567Z,36.89
2018-09-25T23:47:00.015Z,34.95
2018-09-25T23:49:34.241Z,43.15
2018-09-25T23:52:06.412Z,44.98
2018-09-25T23:54:42.422Z,33.76
2018-09-25T23:57:13.280Z,39.17
2018-09-25T23:59:50.699Z,35.99
